createdAt,value
2019-03-01T00:02:07.805Z,34.05
2019-03-01T00:05:01.861Z,36.88
2019-03-01T00:08:10.587Z,32.95
2019-03-01T00:10:47.740Z,33.13
2019-03-01T00:13:25.236Z,32.53
2019-03-01T00:16:20.608Z,32.35
2019-03-01T00:19:07.195Z,32.38
2019-03-01T00:21:41.695Z,32.90
2019-03-01T00:24:41.893Z,30.85
2019-03-01T00:27:25.132Z,34.38
2019-03-01T00:30:32.861Z,34.63
2019-03-01T00:33:10.008Z,32.55
2019-03-01T00:35:44.453Z,34.75
2019-03-01T00:38:18.965Z,32.53
2019-03-01T00:41:09.641Z,34.40
2019-03-01T00:43:55.383Z,33.98
2019-03-01T00:46:26.705Z,32.45
2019-03-01T00:48:58.023Z,35.50
2019-03-01T00:51:29.425Z,33.53
2019-03-01T00:54:00.745Z,32.83
2019-03-01T00:56:32.129Z,33.95
2019-03-01T00:59:03.470Z,33.70
2019-03-01T01:01:34.789Z,33.28
2019-03-01T01:04:06.139Z,35.70
2019-03-01T01:06:37.488Z,36.23
2019-03-01T01:09:08.861Z,33.53
2019-03-01T01:11:40.234Z,37.80
2019-03-01T01:14:11.506Z,36.17
2019-03-01T01:16:42.810Z,33.73
2019-03-01T01:19:14.139Z,32.48
2019-03-01T01:21:45.452Z,31.77
2019-03-01T01:24:16.823Z,31.60
2019-03-01T01:26:48.301Z,27.95
2019-03-01T01:29:19.667Z,26.73
2019-03-01T01:31:50.991Z,27.00
2019-03-01T01:34:22.426Z,27.73
2019-03-01T01:36:53.766Z,26.65
2019-03-01T01:39:25.122Z,26.48
2019-03-01T01:41:56.577Z,25.37
2019-03-01T01:44:28.064Z,26.50
2019-03-01T01:46:59.411Z,20.90
2019-03-01T01:49:30.819Z,27.22
2019-03-01T01:52:02.165Z,23.07
2019-03-01T01:54:33.521Z,23.67
2019-03-01T01:57:04.819Z,22.73
2019-03-01T01:59:36.073Z,21.25
2019-03-01T02:02:07.441Z,20.40
2019-03-01T02:04:38.759Z,20.95
2019-03-01T02:07:10.130Z,21.73
2019-03-01T02:09:41.521Z,17.15
2019-03-01T02:12:12.917Z,17.37
2019-03-01T02:14:44.290Z,18.98
2019-03-01T02:17:15.653Z,18.80
2019-03-01T02:19:47.035Z,20.92
2019-03-01T02:22:18.347Z,20.68
2019-03-01T02:24:49.713Z,18.80
2019-03-01T02:27:28.942Z,20.45
2019-03-01T02:30:00.533Z,22.07
2019-03-01T02:32:36.525Z,21.95
2019-03-01T02:35:10.689Z,21.48
2019-03-01T02:37:42.003Z,22.62
2019-03-01T02:40:15.032Z,16.90
2019-03-01T02:42:46.427Z,21.93
2019-03-01T02:45:19.507Z,21.48
2019-03-01T02:47:50.877Z,23.32
2019-03-01T02:50:22.299Z,24.27
2019-03-01T02:52:53.678Z,23.02
2019-03-01T02:55:25.086Z,16.97
2019-03-01T02:57:56.461Z,19.30
2019-03-01T03:00:29.491Z,21.97
2019-03-01T03:03:00.871Z,24.23
2019-03-01T03:05:33.876Z,23.45
2019-03-01T03:08:06.767Z,23.60
2019-03-01T03:10:38.205Z,22.80
2019-03-01T03:13:10.955Z,24.20
2019-03-01T03:15:43.909Z,23.02
2019-03-01T03:18:15.281Z,24.50
2019-03-01T03:20:46.661Z,25.75
2019-03-01T03:23:17.997Z,26.25
2019-03-01T03:25:49.398Z,23.02
2019-03-01T03:28:20.771Z,24.23
2019-03-01T03:30:52.161Z,26.02
2019-03-01T03:33:23.554Z,30.20
2019-03-01T03:35:56.281Z,29.07
2019-03-01T03:38:27.671Z,29.02
2019-03-01T03:41:00.690Z,30.12
2019-03-01T03:43:31.922Z,33.65
2019-03-01T03:46:03.192Z,28.25
2019-03-01T03:48:36.234Z,31.93
2019-03-01T03:51:07.686Z,37.63
2019-03-01T03:53:38.933Z,41.20
2019-03-01T03:56:10.286Z,42.62
2019-03-01T03:58:41.700Z,45.30
2019-03-01T04:01:13.150Z,56.33
2019-03-01T04:03:44.513Z,58.40
2019-03-01T04:06:15.920Z,56.90
2019-03-01T04:08:47.330Z,55.65
2019-03-01T04:11:18.671Z,48.00
2019-03-01T04:13:50.086Z,44.00
2019-03-01T04:16:21.518Z,45.45
2019-03-01T04:18:52.835Z,44.23
2019-03-01T04:21:24.264Z,37.67
2019-03-01T04:23:55.794Z,37.38
2019-03-01T04:26:28.182Z,33.45
2019-03-01T04:28:59.547Z,33.18
2019-03-01T04:31:30.946Z,29.00
2019-03-01T04:34:02.210Z,34.35
2019-03-01T04:36:33.557Z,35.83
2019-03-01T04:39:06.169Z,31.50
2019-03-01T04:41:39.195Z,30.72
2019-03-01T04:44:10.574Z,29.55
2019-03-01T04:46:42.002Z,29.23
2019-03-01T04:49:13.345Z,28.75
2019-03-01T04:51:44.741Z,21.97
2019-03-01T04:54:16.146Z,31.07
2019-03-01T04:56:47.787Z,29.32
2019-03-01T04:59:19.179Z,27.32
2019-03-01T05:01:50.566Z,27.77
2019-03-01T05:04:21.911Z,27.13
2019-03-01T05:06:53.323Z,29.87
2019-03-01T05:09:24.646Z,30.65
2019-03-01T05:11:56.014Z,32.70
2019-03-01T05:14:27.362Z,31.70
2019-03-01T05:16:58.634Z,39.05
2019-03-01T05:19:30.120Z,39.95
2019-03-01T05:22:01.429Z,41.33
2019-03-01T05:24:32.818Z,38.17
2019-03-01T05:27:04.209Z,33.50
2019-03-01T05:29:35.577Z,30.62
2019-03-01T05:32:06.904Z,30.00
2019-03-01T05:34:38.352Z,26.50
2019-03-01T05:37:09.670Z,16.67
2019-03-01T05:39:41.005Z,16.62
2019-03-01T05:42:13.000Z,16.30
2019-03-01T05:47:14.786Z,17.17
2019-03-01T05:49:46.172Z,15.60
2019-03-01T05:52:17.564Z,15.85
2019-03-01T05:54:48.906Z,17.02
2019-03-01T05:57:20.240Z,16.30
2019-03-01T05:59:51.599Z,15.98
2019-03-01T06:02:26.161Z,14.33
2019-03-01T06:04:59.106Z,13.15
2019-03-01T06:07:36.359Z,14.20
2019-03-01T06:10:10.792Z,13.80
2019-03-01T06:13:03.189Z,12.95
2019-03-01T06:15:58.887Z,11.38
2019-03-01T06:18:39.134Z,12.03
2019-03-01T06:21:22.713Z,12.28
2019-03-01T06:24:18.287Z,13.08
2019-03-01T06:27:01.496Z,13.72
2019-03-01T06:29:35.991Z,15.65
2019-03-01T06:32:29.969Z,15.08
2019-03-01T06:35:23.005Z,16.23
2019-03-01T06:38:47.200Z,16.50
2019-03-01T06:41:31.587Z,15.28
2019-03-01T06:44:15.342Z,14.73
2019-03-01T06:46:54.204Z,15.78
2019-03-01T06:49:27.220Z,16.27
2019-03-01T06:51:58.556Z,16.85
2019-03-01T06:54:30.563Z,15.53
2019-03-01T06:59:32.379Z,16.37
2019-03-01T07:02:03.765Z,17.17
2019-03-01T07:04:35.186Z,12.00
2019-03-01T07:07:06.569Z,17.42
2019-03-01T07:09:37.898Z,15.75
2019-03-01T07:12:09.417Z,15.90
2019-03-01T07:14:40.767Z,16.55
2019-03-01T07:17:12.106Z,17.05
2019-03-01T07:19:43.487Z,10.15
2019-03-01T07:22:15.800Z,12.93
2019-03-01T07:24:47.144Z,14.00
2019-03-01T07:27:19.700Z,12.15
2019-03-01T07:29:51.588Z,13.00
2019-03-01T07:32:22.974Z,12.47
2019-03-01T07:34:54.413Z,13.28
2019-03-01T07:37:25.736Z,8.95
2019-03-01T07:39:59.120Z,14.80
2019-03-01T07:45:35.700Z,11.18
2019-03-01T07:48:07.048Z,9.90
2019-03-01T07:50:38.236Z,8.83
2019-03-01T07:53:09.440Z,6.80
2019-03-01T07:55:40.651Z,9.18
2019-03-01T07:58:11.884Z,11.05
2019-03-01T08:00:43.295Z,10.58
2019-03-01T08:03:15.158Z,12.63
2019-03-01T08:05:47.556Z,11.93
2019-03-01T08:08:18.929Z,13.95
2019-03-01T08:10:53.500Z,11.55
2019-03-01T08:13:23.378Z,12.00
2019-03-01T08:15:54.782Z,13.85
2019-03-01T08:18:26.258Z,10.98
2019-03-01T08:20:57.797Z,16.73
2019-03-01T08:23:31.751Z,15.88
2019-03-01T08:26:03.522Z,15.43
2019-03-01T08:28:35.193Z,13.35
2019-03-01T08:31:06.578Z,10.98
2019-03-01T08:33:42.349Z,12.53
2019-03-01T08:36:10.981Z,12.28
2019-03-01T08:38:42.247Z,11.78
2019-03-01T08:41:13.667Z,9.58
2019-03-01T08:43:48.112Z,10.65
2019-03-01T08:46:18.065Z,10.30
2019-03-01T08:48:49.439Z,7.85
2019-03-01T08:51:22.650Z,7.35
2019-03-01T08:53:53.781Z,8.15
2019-03-01T08:56:26.392Z,7.78
2019-03-01T08:58:59.204Z,9.00
2019-03-01T09:01:31.780Z,10.50
2019-03-01T09:04:14.114Z,9.83
2019-03-01T09:06:43.442Z,10.58
2019-03-01T09:09:17.548Z,11.78
2019-03-01T09:11:47.953Z,12.50
2019-03-01T09:14:19.295Z,10.98
2019-03-01T09:16:50.660Z,8.28
2019-03-01T09:19:22.385Z,7.50
2019-03-01T09:21:54.976Z,7.75
2019-03-01T09:24:29.162Z,16.05
2019-03-01T09:26:59.330Z,7.62
2019-03-01T09:29:30.550Z,8.18
2019-03-01T09:32:01.773Z,8.25
2019-03-01T09:34:33.088Z,6.12
2019-03-01T09:37:04.469Z,5.35
2019-03-01T09:39:35.698Z,6.35
2019-03-01T09:42:06.885Z,4.50
2019-03-01T09:44:39.299Z,4.87
2019-03-01T09:47:10.761Z,4.20
2019-03-01T09:49:42.071Z,4.80
2019-03-01T09:52:13.317Z,4.87
2019-03-01T09:54:44.899Z,4.87
2019-03-01T09:57:16.509Z,10.35
2019-03-01T10:02:18.458Z,8.83
2019-03-01T10:04:49.960Z,6.37
2019-03-01T10:07:21.223Z,7.90
2019-03-01T10:09:52.375Z,6.30
2019-03-01T10:12:23.743Z,9.55
2019-03-01T10:14:54.986Z,10.18
2019-03-01T10:17:26.316Z,9.70
2019-03-01T10:19:57.622Z,11.05
2019-03-01T10:22:39.243Z,11.95
2019-03-01T10:25:13.236Z,9.18
2019-03-01T10:27:44.454Z,7.97
2019-03-01T10:30:21.097Z,8.35
2019-03-01T10:32:52.358Z,8.25
2019-03-01T10:35:23.690Z,5.80
2019-03-01T10:37:54.982Z,7.70
2019-03-01T10:40:27.473Z,6.70
2019-03-01T10:42:58.692Z,7.10
2019-03-01T10:45:30.707Z,6.53
2019-03-01T10:48:01.888Z,6.75
2019-03-01T10:50:33.229Z,11.10
2019-03-01T10:53:04.603Z,11.88
2019-03-01T10:55:36.055Z,8.68
2019-03-01T10:58:07.304Z,11.03
2019-03-01T11:00:38.662Z,11.70
2019-03-01T11:03:10.024Z,9.25
2019-03-01T11:05:41.295Z,8.45
2019-03-01T11:08:12.558Z,9.15
2019-03-01T11:10:43.841Z,5.70
2019-03-01T11:13:18.300Z,6.40
2019-03-01T11:15:49.621Z,8.60
2019-03-01T11:18:20.939Z,7.65
2019-03-01T11:20:52.260Z,7.30
2019-03-01T11:23:23.562Z,7.92
2019-03-01T11:25:54.847Z,7.17
2019-03-01T11:28:26.124Z,6.92
2019-03-01T11:30:57.850Z,5.40
2019-03-01T11:33:29.084Z,5.28
2019-03-01T11:36:00.351Z,4.35
2019-03-01T11:38:31.635Z,6.12
2019-03-01T11:41:04.313Z,6.35
2019-03-01T11:43:36.607Z,7.25
2019-03-01T11:46:07.904Z,7.03
2019-03-01T11:48:39.176Z,7.42
2019-03-01T11:51:10.493Z,7.28
2019-03-01T11:53:42.185Z,7.97
2019-03-01T11:56:13.693Z,6.97
2019-03-01T11:58:44.902Z,9.78
2019-03-01T12:01:17.394Z,12.20
2019-03-01T12:03:49.209Z,9.40
2019-03-01T12:06:20.340Z,8.93
2019-03-01T12:08:51.571Z,8.30
2019-03-01T12:11:22.811Z,14.23
2019-03-01T12:13:54.197Z,9.53
2019-03-01T12:16:25.466Z,7.92
2019-03-01T12:18:56.674Z,6.40
2019-03-01T12:21:27.884Z,5.60
2019-03-01T12:23:59.209Z,6.40
2019-03-01T12:26:30.457Z,6.47
2019-03-01T12:29:01.661Z,7.08
2019-03-01T12:31:32.919Z,7.10
2019-03-01T12:34:04.173Z,13.15
2019-03-01T12:36:35.513Z,7.90
2019-03-01T12:39:07.498Z,8.40
2019-03-01T12:41:40.186Z,7.17
2019-03-01T12:44:11.439Z,4.85
2019-03-01T12:46:43.774Z,5.95
2019-03-01T12:49:14.981Z,7.33
2019-03-01T12:51:46.225Z,10.85
2019-03-01T12:54:17.708Z,7.35
2019-03-01T12:56:49.009Z,7.33
2019-03-01T12:59:20.280Z,6.62
2019-03-01T13:01:51.495Z,7.05
2019-03-01T13:04:22.783Z,7.53
2019-03-01T13:06:54.085Z,8.50
2019-03-01T13:09:26.472Z,7.22
2019-03-01T13:11:58.006Z,10.75
2019-03-01T13:14:29.360Z,10.15
2019-03-01T13:17:01.767Z,12.03
2019-03-01T13:19:34.040Z,10.60
2019-03-01T13:22:05.436Z,8.08
2019-03-01T13:24:36.829Z,6.78
2019-03-01T13:27:08.235Z,7.30
2019-03-01T13:29:39.501Z,7.90
2019-03-01T13:32:10.720Z,8.18
2019-03-01T13:34:41.979Z,6.58
2019-03-01T13:37:19.290Z,6.97
2019-03-01T13:39:48.603Z,7.83
2019-03-01T13:42:20.217Z,8.28
2019-03-01T13:44:51.432Z,7.90
2019-03-01T13:47:22.659Z,8.08
2019-03-01T13:49:53.993Z,11.68
2019-03-01T13:52:26.740Z,6.85
2019-03-01T13:54:59.222Z,8.50
2019-03-01T13:57:30.581Z,11.75
2019-03-01T14:00:03.200Z,9.73
2019-03-01T14:02:35.720Z,6.92
2019-03-01T14:05:08.834Z,6.80
2019-03-01T14:07:40.150Z,7.97
2019-03-01T14:10:13.922Z,6.78
2019-03-01T14:12:45.223Z,7.30
2019-03-01T14:15:17.958Z,8.43
2019-03-01T14:17:49.243Z,9.35
2019-03-01T14:20:22.622Z,12.25
2019-03-01T14:22:54.079Z,12.95
2019-03-01T14:25:25.489Z,16.82
2019-03-01T14:27:56.886Z,16.50
2019-03-01T14:30:30.277Z,18.48
2019-03-01T14:33:01.516Z,19.50
2019-03-01T14:35:32.953Z,19.55
2019-03-01T14:38:04.679Z,16.27
2019-03-01T14:40:36.085Z,16.75
2019-03-01T14:43:07.547Z,16.05
2019-03-01T14:45:41.729Z,14.65
2019-03-01T14:48:12.111Z,13.55
2019-03-01T14:50:43.518Z,12.15
2019-03-01T14:53:14.957Z,11.15
2019-03-01T14:55:58.955Z,11.95
2019-03-01T14:58:37.413Z,12.43
2019-03-01T15:01:27.703Z,12.43
2019-03-01T15:03:59.262Z,13.95
2019-03-01T15:06:30.711Z,8.95
2019-03-01T15:09:01.980Z,12.68
2019-03-01T15:11:34.894Z,11.78
2019-03-01T15:14:12.078Z,12.78
2019-03-01T15:16:43.370Z,17.02
2019-03-01T15:19:12.506Z,20.95
2019-03-01T15:21:43.979Z,24.98
2019-03-01T15:24:15.407Z,29.85
2019-03-01T15:26:46.814Z,26.27
2019-03-01T15:29:18.254Z,20.92
2019-03-01T15:31:51.099Z,16.55
2019-03-01T15:34:24.079Z,17.10
2019-03-01T15:36:56.803Z,17.98
2019-03-01T15:39:28.246Z,14.43
2019-03-01T15:41:59.629Z,16.23
2019-03-01T15:44:31.146Z,17.07
2019-03-01T15:47:02.548Z,18.82
2019-03-01T15:49:34.027Z,13.95
2019-03-01T15:52:05.426Z,18.35
2019-03-01T15:54:36.832Z,18.25
2019-03-01T15:57:08.405Z,16.95
2019-03-01T15:59:39.832Z,18.35
2019-03-01T16:02:11.210Z,20.23
2019-03-01T16:04:42.587Z,22.90
2019-03-01T16:07:14.064Z,13.53
2019-03-01T16:09:45.485Z,19.00
2019-03-01T16:12:16.945Z,20.72
2019-03-01T16:14:48.385Z,19.65
2019-03-01T16:17:24.350Z,21.40
2019-03-01T16:19:54.135Z,25.68
2019-03-01T16:22:25.696Z,20.95
2019-03-01T16:24:57.165Z,23.50
2019-03-01T16:27:28.603Z,22.73
2019-03-01T16:30:00.017Z,22.93
2019-03-01T16:32:31.468Z,21.48
2019-03-01T16:35:02.911Z,18.57
2019-03-01T16:37:34.325Z,21.97
2019-03-01T16:40:11.341Z,19.87
2019-03-01T16:42:42.946Z,19.80
2019-03-01T16:45:17.750Z,20.82
2019-03-01T16:47:48.707Z,21.85
2019-03-01T16:50:21.288Z,22.65
2019-03-01T16:52:52.683Z,24.98
2019-03-01T16:55:28.841Z,27.55
2019-03-01T16:58:06.770Z,28.35
2019-03-01T17:00:35.932Z,27.32
2019-03-01T17:03:09.273Z,27.62
2019-03-01T17:05:40.759Z,27.22
2019-03-01T17:08:12.202Z,24.98
2019-03-01T17:10:43.653Z,22.45
2019-03-01T17:13:15.096Z,20.88
2019-03-01T17:15:48.449Z,15.13
2019-03-01T17:18:19.653Z,15.05
2019-03-01T17:20:51.249Z,13.43
2019-03-01T17:23:23.366Z,13.80
2019-03-01T17:25:54.846Z,13.62
2019-03-01T17:28:27.810Z,12.88
2019-03-01T17:30:59.202Z,12.55
2019-03-01T17:33:31.668Z,14.90
2019-03-01T17:36:03.096Z,13.80
2019-03-01T17:38:34.417Z,10.58
2019-03-01T17:41:09.330Z,10.35
2019-03-01T17:43:39.032Z,11.73
2019-03-01T17:46:10.442Z,7.78
2019-03-01T17:48:41.778Z,11.20
2019-03-01T17:51:13.145Z,11.15
2019-03-01T17:53:46.426Z,16.48
2019-03-01T17:56:21.927Z,11.05
2019-03-01T17:58:51.977Z,10.20
2019-03-01T18:01:23.363Z,12.73
2019-03-01T18:03:57.994Z,10.35
2019-03-01T18:06:29.328Z,10.13
2019-03-01T18:09:00.781Z,12.55
2019-03-01T18:11:33.737Z,13.18
2019-03-01T18:14:05.115Z,17.07
2019-03-01T18:16:36.521Z,12.68
2019-03-01T18:19:07.900Z,17.07
2019-03-01T18:21:39.416Z,15.65
2019-03-01T18:24:11.101Z,18.02
2019-03-01T18:26:44.002Z,22.05
2019-03-01T18:29:15.506Z,10.82
2019-03-01T18:31:46.903Z,9.80
2019-03-01T18:34:18.337Z,11.40
2019-03-01T18:36:49.773Z,7.17
2019-03-01T18:39:21.576Z,9.20
2019-03-01T18:41:59.333Z,9.50
2019-03-01T18:44:30.798Z,7.95
2019-03-01T18:47:02.289Z,8.40
2019-03-01T18:49:33.621Z,7.75
2019-03-01T18:52:17.655Z,8.53
2019-03-01T18:54:49.766Z,7.17
2019-03-01T18:57:21.311Z,8.38
2019-03-01T18:59:52.537Z,9.08
2019-03-01T19:02:24.335Z,8.75
2019-03-01T19:04:56.794Z,10.30
2019-03-01T19:07:28.706Z,11.08
2019-03-01T19:10:01.281Z,14.45
2019-03-01T19:12:33.377Z,16.37
2019-03-01T19:15:06.808Z,19.15
2019-03-01T19:17:40.746Z,22.13
2019-03-01T19:20:13.906Z,25.35
2019-03-01T19:22:45.332Z,25.80
2019-03-01T19:25:16.830Z,28.25
2019-03-01T19:27:50.744Z,28.85
2019-03-01T19:30:24.377Z,28.60
2019-03-01T19:32:58.822Z,30.45
2019-03-01T19:35:30.136Z,25.05
2019-03-01T19:38:01.474Z,19.92
2019-03-01T19:40:37.293Z,18.52
2019-03-01T19:43:15.370Z,16.95
2019-03-01T19:45:47.852Z,16.50
2019-03-01T19:48:19.186Z,15.93
2019-03-01T19:50:50.819Z,16.67
2019-03-01T19:53:25.467Z,14.10
2019-03-01T19:55:55.245Z,13.85
2019-03-01T19:58:26.566Z,13.83
2019-03-01T20:00:57.986Z,16.93
2019-03-01T20:03:29.409Z,19.35
2019-03-01T20:06:00.795Z,17.02
2019-03-01T20:08:32.195Z,17.75
2019-03-01T20:11:03.528Z,15.85
2019-03-01T20:13:35.950Z,15.53
2019-03-01T20:16:07.240Z,14.35
2019-03-01T20:18:41.745Z,11.48
2019-03-01T20:21:11.664Z,12.30
2019-03-01T20:23:43.050Z,10.90
2019-03-01T20:26:14.408Z,9.28
2019-03-01T20:28:47.655Z,8.95
2019-03-01T20:31:18.634Z,7.72
2019-03-01T20:33:49.924Z,7.53
2019-03-01T20:36:21.134Z,7.45
2019-03-01T20:38:52.384Z,5.75
2019-03-01T20:41:23.674Z,5.87
2019-03-01T20:43:54.966Z,5.47
2019-03-01T20:46:26.301Z,5.75
2019-03-01T20:49:00.659Z,4.55
2019-03-01T20:51:32.083Z,5.85
2019-03-01T20:54:03.319Z,6.35
2019-03-01T20:56:34.618Z,7.25
2019-03-01T20:59:05.880Z,8.45
2019-03-01T21:01:38.181Z,6.40
2019-03-01T21:04:10.776Z,6.67
2019-03-01T21:06:42.023Z,6.42
2019-03-01T21:09:13.191Z,7.67
2019-03-01T21:11:44.502Z,6.37
2019-03-01T21:14:15.693Z,6.28
2019-03-01T21:16:47.067Z,7.65
2019-03-01T21:19:18.273Z,7.20
2019-03-01T21:21:49.595Z,7.65
2019-03-01T21:24:22.893Z,5.95
2019-03-01T21:26:53.826Z,8.50
2019-03-01T21:29:25.062Z,8.70
2019-03-01T21:31:56.350Z,7.47
2019-03-01T21:34:27.577Z,7.40
2019-03-01T21:37:02.342Z,7.62
2019-03-01T21:39:31.845Z,9.48
2019-03-01T21:42:03.070Z,7.83
2019-03-01T21:44:34.195Z,14.00
2019-03-01T21:47:06.969Z,18.65
2019-03-01T21:49:38.836Z,17.65
2019-03-01T21:52:10.149Z,18.40
2019-03-01T21:54:41.496Z,18.30
2019-03-01T21:57:12.987Z,18.50
2019-03-01T21:59:44.376Z,20.55
2019-03-01T22:02:17.069Z,19.32
2019-03-01T22:04:48.880Z,19.32
2019-03-01T22:07:21.569Z,18.77
2019-03-01T22:09:52.979Z,22.15
2019-03-01T22:12:24.714Z,20.40
2019-03-01T22:14:56.933Z,22.55
2019-03-01T22:17:28.213Z,23.42
2019-03-01T22:19:59.539Z,25.12
2019-03-01T22:22:30.857Z,22.37
2019-03-01T22:25:03.269Z,24.63
2019-03-01T22:27:34.906Z,28.57
2019-03-01T22:30:12.261Z,21.95
2019-03-01T22:32:45.444Z,22.50
2019-03-01T22:35:16.760Z,20.20
2019-03-01T22:37:48.193Z,20.37
2019-03-01T22:40:19.575Z,24.43
2019-03-01T22:42:51.181Z,23.07
2019-03-01T22:45:22.617Z,26.90
2019-03-01T22:47:53.966Z,27.50
2019-03-01T22:50:25.351Z,28.87
2019-03-01T22:52:56.733Z,29.80
2019-03-01T22:55:28.102Z,22.13
2019-03-01T22:58:00.869Z,30.15
2019-03-01T23:00:57.937Z,31.87
2019-03-01T23:03:28.634Z,30.45
2019-03-01T23:06:00.030Z,31.15
2019-03-01T23:08:31.704Z,28.73
2019-03-01T23:11:04.449Z,24.20
2019-03-01T23:13:35.860Z,17.65
2019-03-01T23:16:07.269Z,24.35
2019-03-01T23:18:40.549Z,26.15
2019-03-01T23:21:11.779Z,24.57
2019-03-01T23:23:43.173Z,25.37
2019-03-01T23:26:14.533Z,24.65
2019-03-01T23:28:45.836Z,18.98
2019-03-01T23:31:18.255Z,23.18
2019-03-01T23:33:49.561Z,22.37
2019-03-01T23:36:20.919Z,23.07
2019-03-01T23:38:52.518Z,25.37
2019-03-01T23:41:23.953Z,23.18
2019-03-01T23:43:55.292Z,20.77
2019-03-01T23:46:28.562Z,24.50
2019-03-01T23:49:06.273Z,22.15
2019-03-01T23:51:33.736Z,19.20
2019-03-01T23:54:05.655Z,16.65
2019-03-01T23:56:38.832Z,17.98
2019-03-01T23:59:10.255Z,17.30
